Impacts METAR Board
IDs:

KBWI - Baltimore-Washington, MD, US

Updated at: 0600 UTC 07 Dec 2022
Potential Impact None Slight Moderate High
Time 06/18Z 06/19Z 06/20Z 06/21Z 06/22Z 06/23Z 07/00Z 07/01Z 07/02Z 07/03Z 07/04Z 07/05Z 07/06Z
Temp47 48 47 47 47 47 48 49 50 51 51 52 52
Dewpt45 46 46 46 46 46 47 48 49 50 50 51 51
Altim30.21 30.20 30.20 30.20 30.20 30.21 30.20 30.21 30.20 30.20 30.20 30.19 30.19
VIS1 1.75 2 1.5 1 3 4 4 8 8 2.5 2 4
CIG4 4 4 3 4 4 4 4 4 17 12 4 4
CoverOVCOVCOVCOVCOVCOVCOVCOVCOVCOVCOVCOVCOVC
FltCatLIFRLIFRLIFRLIFRLIFRLIFRLIFRLIFRLIFRMVFRIFRLIFRLIFR
WX-DZ BRBR-DZ BR-DZ BR-DZ BRBRBRBR-----DZ BR-RA BRBR
WDir0012014001201300250230120180150
WSpd0 0 4 3 0 4 3 3 4 4 3 3 4
WGst-- -- -- -- -- -- -- -- -- -- -- -- --
Raw hourly METARs
KBWI 061754Z 00000KT 1SM R10/P6000FT -DZ BR BKN004 OVC010 08/07 A3021 RMK AO2 RAE46DZB46 SLP232 P0001 60013 T00830072 10083 20056 56014
KBWI 061854Z 00000KT 1 3/4SM BR BKN004 OVC010 09/08 A3020 RMK AO2 DZE21 SLP227 P0001 T00890078
KBWI 062005Z 12004KT 2SM -DZ BR OVC004 08/08 A3020 RMK AO2 P0000 T00830078
KBWI 062054Z 14003KT 1 1/2SM -DZ BR OVC003 08/08 A3020 RMK AO2 SLP227 P0000 60001 T00830078 56004
KBWI 062154Z 00000KT 1SM R10/P6000FT -DZ BR OVC004 08/08 A3020 RMK AO2 SLP227 P0000 T00830078
KBWI 062254Z 12004KT 3SM BR OVC004 08/08 A3021 RMK AO2 DZE40RAB40E51 SLP229 P0002 T00830078
KBWI 062354Z 13003KT 4SM BR OVC004 09/08 A3020 RMK AO2 RAB06E34 SLP228 P0002 60005 T00890083 10089 20078 50001
KBWI 070054Z VRB03KT 4SM BR BKN004 OVC018 09/09 A3021 RMK AO2 SLP229 T00940089
KBWI 070154Z 25004KT 8SM BKN004 OVC018 10/09 A3020 RMK AO2 SLP228 T01000094
KBWI 070254Z 23004KT 8SM FEW004 OVC017 11/10 A3020 RMK AO2 SLP227 T01060100 58002
KBWI 070354Z 12003KT 2 1/2SM -DZ BR FEW006 OVC012 11/10 A3020 RMK AO2 DZB52 SLP228 P0000 T01060100
KBWI 070458Z 18003KT 2SM -RA BR BKN004 OVC008 11/11 A3019 RMK AO2 RAB55 P0001 T01110106
KBWI 070554Z 15004KT 4SM BR OVC004 11/11 A3019 RMK AO2 RAB0455E08 SLP224 P0001 60001 T01110106 10111 20089 58003



Page loaded:  06:48 UTC  |   10:48 PM Pacific  |   11:48 PM Mountain  |   12:48 AM Central  |   01:48 AM Eastern

 

ADVISORIES

FORECASTS

FORECASTS

OBSERVATIONS

USER TOOLS

ABOUT US